Time;durP1;ratioP1;P1;durP2;ratioP2;P2;SDS_P1;SDS_P2;PMS_P1;PMS_P2;Temp;Humidity;BMP_temperature;BMP_pressure;BME280_temperature;BME280_humidity;BME280_pressure;Samples;Min_cycle;Max_cycle;Signal;HPM_P1;HPM_P2
2021/04/10 00:00:10;;;;;;;7.43;2.70;;;;;;;;;;10349817;28;20222;-69
2021/04/10 00:05:12;;;;;;;5.87;2.60;;;;;;;;;;10355273;28;20271;-69
2021/04/10 00:10:15;;;;;;;5.10;2.43;;;;;;;;;;10354278;28;20221;-71
2021/04/10 00:15:18;;;;;;;5.83;2.47;;;;;;;;;;10359674;28;20205;-69
2021/04/10 00:20:20;;;;;;;6.77;2.33;;;;;;;;;;10377887;28;20230;-69
2021/04/10 00:25:23;;;;;;;7.07;2.53;;;;;;;;;;10368640;28;20202;-70
2021/04/10 00:30:30;;;;;;;6.20;2.47;;;;;;;;;;10350025;28;20218;-69
2021/04/10 00:35:32;;;;;;;6.30;2.50;;;;;;;;;;10386497;28;20201;-70
2021/04/10 00:40:34;;;;;;;6.60;2.33;;;;;;;;;;10347060;28;20936;-69
2021/04/10 00:45:36;;;;;;;5.70;2.37;;;;;;;;;;10343630;28;20876;-67
2021/04/10 00:50:38;;;;;;;5.70;2.20;;;;;;;;;;10341617;28;20313;-70
2021/04/10 00:55:42;;;;;;;5.67;2.43;;;;;;;;;;10378807;28;20185;-70
2021/04/10 01:00:43;;;;;;;5.97;2.47;;;;;;;;;;10374294;28;20213;-71
2021/04/10 01:05:45;;;;;;;6.67;2.40;;;;;;;;;;10353153;28;20201;-69
2021/04/10 01:10:48;;;;;;;6.57;2.60;;;;;;;;;;10359707;28;20352;-70
2021/04/10 01:15:54;;;;;;;4.93;2.47;;;;;;;;;;10348948;28;20214;-70
2021/04/10 01:21:07;;;;;;;6.80;2.40;;;;;;;;;;10355084;28;20604;-68
2021/04/10 01:26:14;;;;;;;6.93;2.40;;;;;;;;;;10381686;28;20210;-68
2021/04/10 01:31:17;;;;;;;5.70;2.63;;;;;;;;;;10361135;28;20321;-70
2021/04/10 01:36:21;;;;;;;5.63;2.37;;;;;;;;;;10369274;28;20257;-68
2021/04/10 01:41:23;;;;;;;5.63;2.40;;;;;;;;;;10349283;28;20309;-70
2021/04/10 01:46:26;;;;;;;7.10;2.63;;;;;;;;;;10365618;28;20302;-68
2021/04/10 01:51:29;;;;;;;6.63;2.57;;;;;;;;;;10367460;28;20597;-68
2021/04/10 01:56:31;;;;;;;6.77;2.60;;;;;;;;;;10348566;28;20218;-68
2021/04/10 02:01:35;;;;;;;7.37;2.50;;;;;;;;;;10353214;28;20234;-68
2021/04/10 02:06:38;;;;;;;5.90;2.50;;;;;;;;;;10358335;28;20266;-69
2021/04/10 02:11:42;;;;;;;7.83;2.73;;;;;;;;;;10358360;28;20265;-68
2021/04/10 02:16:44;;;;;;;4.93;2.50;;;;;;;;;;10364345;28;20202;-68
2021/04/10 02:21:46;;;;;;;7.10;2.60;;;;;;;;;;10352026;28;20238;-69
2021/04/10 02:26:48;;;;;;;6.57;2.47;;;;;;;;;;10383350;28;20274;-72
2021/04/10 02:31:52;;;;;;;3.43;1.63;;;;;;;;;;10376147;28;20241;-70
2021/04/10 02:36:56;;;;;;;4.53;2.17;;;;;;;;;;10388785;28;20230;-69
2021/04/10 02:42:00;;;;;;;6.40;2.37;;;;;;;;;;10371894;28;20295;-69
2021/04/10 02:47:06;;;;;;;5.83;2.10;;;;;;;;;;10346512;28;20199;-70
2021/04/10 02:52:09;;;;;;;6.07;2.47;;;;;;;;;;10382802;28;20742;-68
2021/04/10 02:57:12;;;;;;;5.57;2.20;;;;;;;;;;10362138;28;20213;-70
2021/04/10 03:02:16;;;;;;;6.60;2.63;;;;;;;;;;10358081;28;20238;-70
2021/04/10 03:07:18;;;;;;;5.77;2.30;;;;;;;;;;10370201;28;20195;-70
2021/04/10 03:12:20;;;;;;;5.17;2.13;;;;;;;;;;10361843;28;20238;-69
2021/04/10 03:17:25;;;;;;;6.03;2.13;;;;;;;;;;10361523;28;20210;-70
2021/04/10 03:22:26;;;;;;;7.27;2.50;;;;;;;;;;10370655;28;20226;-68
2021/04/10 03:27:29;;;;;;;7.70;2.40;;;;;;;;;;10389951;28;20190;-69
2021/04/10 03:32:31;;;;;;;5.53;2.40;;;;;;;;;;10355440;28;20214;-71
2021/04/10 03:37:33;;;;;;;5.07;2.10;;;;;;;;;;10386791;28;20214;-68
2021/04/10 03:42:39;;;;;;;7.17;2.60;;;;;;;;;;10359229;28;20252;-69
2021/04/10 03:47:42;;;;;;;5.53;2.27;;;;;;;;;;10370087;28;20186;-69
2021/04/10 03:52:44;;;;;;;4.77;2.57;;;;;;;;;;10348186;28;20234;-68
2021/04/10 03:57:46;;;;;;;6.50;2.50;;;;;;;;;;10373008;28;20206;-68
2021/04/10 04:02:49;;;;;;;6.30;2.00;;;;;;;;;;10375770;28;20272;-68
2021/04/10 04:07:52;;;;;;;6.90;2.67;;;;;;;;;;10373594;28;20285;-69
2021/04/10 04:12:54;;;;;;;3.40;1.70;;;;;;;;;;10351832;28;20257;-69
2021/04/10 04:17:56;;;;;;;4.63;2.27;;;;;;;;;;10342073;28;20869;-70
2021/04/10 04:22:58;;;;;;;5.80;2.30;;;;;;;;;;10377798;28;20210;-69
2021/04/10 04:28:00;;;;;;;6.97;2.73;;;;;;;;;;10364934;28;20194;-70
2021/04/10 04:33:03;;;;;;;6.47;2.70;;;;;;;;;;10392102;28;20197;-69
2021/04/10 04:38:05;;;;;;;5.80;2.47;;;;;;;;;;10345316;28;20534;-68
2021/04/10 04:43:06;;;;;;;4.60;1.80;;;;;;;;;;10352625;28;20221;-68
2021/04/10 04:48:09;;;;;;;6.83;2.63;;;;;;;;;;10342418;28;20198;-70
2021/04/10 04:53:11;;;;;;;5.47;2.17;;;;;;;;;;10361938;28;20217;-70
2021/04/10 04:58:12;;;;;;;5.83;2.70;;;;;;;;;;10336855;28;21599;-69
2021/04/10 05:03:15;;;;;;;2.40;1.27;;;;;;;;;;10362076;28;20202;-69
2021/04/10 05:08:17;;;;;;;2.70;1.27;;;;;;;;;;10335636;28;20284;-69
2021/04/10 05:13:19;;;;;;;6.40;3.00;;;;;;;;;;10351996;28;20268;-69
2021/04/10 05:18:21;;;;;;;3.90;1.60;;;;;;;;;;10371287;28;20218;-69
2021/04/10 05:23:24;;;;;;;2.23;0.97;;;;;;;;;;10331486;28;20195;-69
2021/04/10 05:28:25;;;;;;;7.00;2.60;;;;;;;;;;10385667;28;20205;-68
2021/04/10 05:33:28;;;;;;;3.33;1.37;;;;;;;;;;10367663;28;20209;-68
2021/04/10 05:38:30;;;;;;;5.97;2.90;;;;;;;;;;10377275;28;20218;-70
2021/04/10 05:43:32;;;;;;;6.07;2.50;;;;;;;;;;10361561;28;20198;-70
2021/04/10 05:48:38;;;;;;;4.07;1.33;;;;;;;;;;10369089;28;20233;-70
2021/04/10 05:53:42;;;;;;;4.13;1.77;;;;;;;;;;10359432;28;20617;-66
2021/04/10 05:58:44;;;;;;;5.67;2.30;;;;;;;;;;10368049;28;20228;-69
2021/04/10 06:03:46;;;;;;;6.00;2.00;;;;;;;;;;10351746;28;20677;-69
2021/04/10 06:08:48;;;;;;;3.57;1.53;;;;;;;;;;10365889;28;20214;-70
2021/04/10 06:13:49;;;;;;;7.07;2.60;;;;;;;;;;10360543;28;20238;-69
2021/04/10 06:18:52;;;;;;;6.83;2.60;;;;;;;;;;10367366;28;20249;-67
2021/04/10 06:23:53;;;;;;;7.50;2.97;;;;;;;;;;10362239;28;20206;-68
2021/04/10 06:28:55;;;;;;;6.27;2.70;;;;;;;;;;10365517;28;20214;-67
2021/04/10 06:33:57;;;;;;;3.40;1.70;;;;;;;;;;10351855;28;20198;-69
2021/04/10 06:38:59;;;;;;;5.77;2.50;;;;;;;;;;10372389;28;20313;-69
2021/04/10 06:44:01;;;;;;;6.77;2.60;;;;;;;;;;10377269;28;20690;-69
2021/04/10 06:49:05;;;;;;;5.97;2.23;;;;;;;;;;10364662;28;20217;-67
2021/04/10 06:54:07;;;;;;;3.20;1.77;;;;;;;;;;10369835;28;20220;-70
2021/04/10 06:59:10;;;;;;;5.13;2.17;;;;;;;;;;10389519;28;20861;-68
2021/04/10 07:04:13;;;;;;;5.90;2.20;;;;;;;;;;10348595;28;20233;-69
2021/04/10 07:09:15;;;;;;;4.53;1.77;;;;;;;;;;10365471;28;20292;-69
2021/04/10 07:14:16;;;;;;;5.63;2.30;;;;;;;;;;10366901;28;20238;-70
2021/04/10 07:19:19;;;;;;;7.73;2.40;;;;;;;;;;10361363;28;20312;-69
2021/04/10 07:24:34;;;;;;;7.87;2.10;;;;;;;;;;10367602;28;20206;-70
2021/04/10 07:29:36;;;;;;;3.70;1.80;;;;;;;;;;10346129;28;20218;-68
2021/04/10 07:34:44;;;;;;;3.70;1.83;;;;;;;;;;10354570;28;20292;-68
2021/04/10 07:39:46;;;;;;;5.03;2.28;;;;;;;;;;10351315;28;20511;-69
2021/04/10 07:44:47;;;;;;;6.45;2.03;;;;;;;;;;10366609;28;20276;-69
2021/04/10 07:49:50;;;;;;;4.53;2.00;;;;;;;;;;10386223;28;20829;-69
2021/04/10 08:00:15;;;;;;;4.13;1.92;;;;;;;;;;12220724;23;20245;-68
2021/04/10 08:05:23;;;;;;;4.93;1.90;;;;;;;;;;10276701;28;20718;-68
2021/04/10 08:10:28;;;;;;;9.70;2.60;;;;;;;;;;10321415;28;20203;-69
2021/04/10 08:15:30;;;;;;;4.07;2.05;;;;;;;;;;10318790;28;20194;-69
2021/04/10 08:20:32;;;;;;;4.05;1.90;;;;;;;;;;10324649;28;20296;-68
2021/04/10 08:25:34;;;;;;;3.80;1.80;;;;;;;;;;10320215;28;20217;-68
2021/04/10 08:30:36;;;;;;;3.75;1.85;;;;;;;;;;10316309;28;20318;-68
2021/04/10 08:35:39;;;;;;;5.80;1.70;;;;;;;;;;10321724;28;20198;-68
2021/04/10 08:40:41;;;;;;;6.10;1.85;;;;;;;;;;10299838;28;20520;-69
2021/04/10 08:45:43;;;;;;;5.18;2.20;;;;;;;;;;10316055;28;20253;-69
2021/04/10 08:50:46;;;;;;;4.50;2.03;;;;;;;;;;10316362;28;20214;-69
2021/04/10 08:55:48;;;;;;;4.03;1.90;;;;;;;;;;10323125;28;20238;-69
2021/04/10 09:00:54;;;;;;;4.95;1.92;;;;;;;;;;10316943;28;20309;-69
2021/04/10 09:05:57;;;;;;;4.57;2.20;;;;;;;;;;10315490;28;20749;-70
2021/04/10 09:10:59;;;;;;;6.63;2.20;;;;;;;;;;10307696;28;20690;-69
2021/04/10 09:16:25;;;;;;;4.25;1.90;;;;;;;;;;10292455;28;20199;-68
2021/04/10 09:21:35;;;;;;;7.38;2.10;;;;;;;;;;10298711;28;20539;-69
2021/04/10 09:26:50;;;;;;;3.83;1.95;;;;;;;;;;10326745;28;20186;-69
2021/04/10 09:31:56;;;;;;;5.72;2.30;;;;;;;;;;10316414;28;20694;-73
2021/04/10 09:36:59;;;;;;;8.32;2.50;;;;;;;;;;10327983;28;20198;-73
2021/04/10 09:42:01;;;;;;;5.40;2.03;;;;;;;;;;10305522;28;20516;-73
2021/04/10 09:47:02;;;;;;;5.03;2.25;;;;;;;;;;10330117;28;20218;-73
2021/04/10 09:52:05;;;;;;;4.45;2.40;;;;;;;;;;10311255;28;20218;-72
2021/04/10 09:57:16;;;;;;;32.17;6.13;;;;;;;;;;10310414;28;20249;-72
2021/04/10 10:02:26;;;;;;;5.78;2.50;;;;;;;;;;10329080;28;20737;-72
2021/04/10 10:07:29;;;;;;;4.80;2.40;;;;;;;;;;10305322;28;20989;-72
2021/04/10 10:12:31;;;;;;;5.20;2.05;;;;;;;;;;10316625;28;20223;-72
2021/04/10 10:17:32;;;;;;;6.70;2.58;;;;;;;;;;10312231;28;20208;-72
2021/04/10 10:22:35;;;;;;;5.30;2.60;;;;;;;;;;10308606;28;20285;-72
2021/04/10 10:27:39;;;;;;;5.07;2.20;;;;;;;;;;10313317;28;20206;-71
2021/04/10 10:32:43;;;;;;;5.97;2.60;;;;;;;;;;10326163;28;20222;-72
2021/04/10 10:37:46;;;;;;;9.15;3.08;;;;;;;;;;10314968;28;20227;-73
2021/04/10 10:43:02;;;;;;;5.10;2.65;;;;;;;;;;10326745;28;20310;-72
2021/04/10 10:48:14;;;;;;;6.50;2.63;;;;;;;;;;10316944;28;20205;-71
2021/04/10 10:53:17;;;;;;;5.25;2.60;;;;;;;;;;10326608;28;20312;-74
2021/04/10 10:58:19;;;;;;;7.25;2.80;;;;;;;;;;10306015;28;20211;-72
2021/04/10 11:03:21;;;;;;;7.13;2.95;;;;;;;;;;10318426;28;20224;-72
2021/04/10 11:08:26;;;;;;;4.85;2.63;;;;;;;;;;10318877;28;20608;-72
2021/04/10 11:13:28;;;;;;;5.03;2.63;;;;;;;;;;10325801;28;20811;-72
2021/04/10 11:18:30;;;;;;;6.13;2.60;;;;;;;;;;10328686;28;20211;-71
2021/04/10 11:23:53;;;;;;;4.82;2.85;;;;;;;;;;10325427;28;20213;-72
2021/04/10 11:29:11;;;;;;;5.55;2.88;;;;;;;;;;10339004;28;20230;-72
2021/04/10 11:34:29;;;;;;;5.97;2.40;;;;;;;;;;10330379;28;20473;-72
2021/04/10 11:39:47;;;;;;;6.25;3.17;;;;;;;;;;10312859;28;20226;-73
2021/04/10 11:44:52;;;;;;;5.07;2.75;;;;;;;;;;10333394;28;20197;-73
2021/04/10 11:50:05;;;;;;;6.70;2.70;;;;;;;;;;10318228;28;20215;-72
2021/04/10 11:55:09;;;;;;;7.82;2.97;;;;;;;;;;10335004;28;20214;-73
2021/04/10 12:00:12;;;;;;;6.65;2.97;;;;;;;;;;10314768;28;20231;-73
2021/04/10 12:05:21;;;;;;;6.00;3.03;;;;;;;;;;10335490;28;20658;-73
2021/04/10 12:10:24;;;;;;;6.95;3.10;;;;;;;;;;10336149;28;20235;-73
2021/04/10 12:15:26;;;;;;;5.63;2.88;;;;;;;;;;10330259;28;20194;-72
2021/04/10 12:20:27;;;;;;;6.32;3.13;;;;;;;;;;10341435;28;20673;-73
2021/04/10 12:25:30;;;;;;;6.20;3.28;;;;;;;;;;10322313;28;20630;-73
2021/04/10 12:30:32;;;;;;;5.40;3.10;;;;;;;;;;10347190;28;20222;-73
2021/04/10 12:35:34;;;;;;;7.03;3.78;;;;;;;;;;10348317;28;20190;-73
2021/04/10 12:40:36;;;;;;;5.57;3.13;;;;;;;;;;10341964;28;20289;-73
2021/04/10 12:45:39;;;;;;;6.00;3.00;;;;;;;;;;10330928;28;20202;-72
2021/04/10 12:50:40;;;;;;;6.40;2.95;;;;;;;;;;10345102;28;20233;-73
2021/04/10 12:55:43;;;;;;;6.50;3.28;;;;;;;;;;10354402;28;20198;-72
2021/04/10 13:00:44;;;;;;;6.50;3.22;;;;;;;;;;10335192;28;20245;-71
2021/04/10 13:05:46;;;;;;;6.28;3.28;;;;;;;;;;10331222;28;20761;-72
2021/04/10 13:10:48;;;;;;;6.65;3.40;;;;;;;;;;10349050;28;20210;-71
2021/04/10 13:15:50;;;;;;;6.57;3.63;;;;;;;;;;10346981;28;20226;-72
2021/04/10 13:20:52;;;;;;;9.02;3.10;;;;;;;;;;10347138;28;20249;-72
2021/04/10 13:25:54;;;;;;;6.32;3.03;;;;;;;;;;10344123;28;20182;-72
2021/04/10 13:30:59;;;;;;;5.47;3.25;;;;;;;;;;10352083;28;20253;-72
2021/04/10 13:36:01;;;;;;;4.65;3.10;;;;;;;;;;10322930;28;20206;-72
2021/04/10 13:41:04;;;;;;;6.55;2.97;;;;;;;;;;10348593;28;20222;-72
2021/04/10 13:46:05;;;;;;;7.00;3.22;;;;;;;;;;10345253;28;20205;-72
2021/04/10 13:51:07;;;;;;;7.97;3.60;;;;;;;;;;10321424;28;20461;-73
2021/04/10 13:56:10;;;;;;;7.05;2.88;;;;;;;;;;10335489;28;20250;-70
2021/04/10 14:01:11;;;;;;;6.28;3.00;;;;;;;;;;10341838;28;20293;-72
2021/04/10 14:06:16;;;;;;;8.38;3.88;;;;;;;;;;10328532;28;20199;-72
2021/04/10 14:11:18;;;;;;;6.20;3.60;;;;;;;;;;10351144;28;20219;-72
2021/04/10 14:16:20;;;;;;;5.75;3.15;;;;;;;;;;10354765;28;20820;-71
2021/04/10 14:21:22;;;;;;;8.23;3.80;;;;;;;;;;10351555;28;20293;-71
2021/04/10 14:26:25;;;;;;;9.63;3.63;;;;;;;;;;10358739;28;20220;-71
2021/04/10 14:31:26;;;;;;;7.07;3.40;;;;;;;;;;10338668;28;20268;-72
2021/04/10 14:36:28;;;;;;;8.57;3.50;;;;;;;;;;10338652;28;20226;-72
2021/04/10 14:41:30;;;;;;;7.23;3.57;;;;;;;;;;10357254;28;20226;-72
2021/04/10 14:46:32;;;;;;;6.63;3.43;;;;;;;;;;10333006;28;20198;-72
2021/04/10 14:51:35;;;;;;;6.03;3.33;;;;;;;;;;10357192;28;20310;-71
2021/04/10 14:56:36;;;;;;;6.10;3.27;;;;;;;;;;10333560;28;20689;-71
2021/04/10 15:01:39;;;;;;;8.50;3.40;;;;;;;;;;10340034;28;20223;-71
2021/04/10 15:06:41;;;;;;;8.17;3.80;;;;;;;;;;10351745;28;20277;-73
2021/04/10 15:11:43;;;;;;;8.80;3.67;;;;;;;;;;10356157;28;20215;-72
2021/04/10 15:16:45;;;;;;;6.83;3.30;;;;;;;;;;10338519;28;20206;-72
2021/04/10 15:21:47;;;;;;;7.53;3.40;;;;;;;;;;10336839;28;20215;-72
2021/04/10 15:26:49;;;;;;;6.67;3.40;;;;;;;;;;10345071;28;20206;-72
2021/04/10 15:31:52;;;;;;;7.30;3.50;;;;;;;;;;10335647;28;20213;-72
2021/04/10 15:36:55;;;;;;;6.90;3.67;;;;;;;;;;10338403;28;20315;-72
2021/04/10 15:41:57;;;;;;;7.80;3.33;;;;;;;;;;10357329;28;20327;-71
2021/04/10 15:46:59;;;;;;;8.93;3.87;;;;;;;;;;10351915;28;20561;-71
2021/04/10 15:52:01;;;;;;;8.27;3.90;;;;;;;;;;10355981;28;20253;-71
2021/04/10 15:57:03;;;;;;;8.07;3.80;;;;;;;;;;10338371;28;20206;-71
2021/04/10 16:02:05;;;;;;;7.80;3.60;;;;;;;;;;10336915;28;20269;-71
2021/04/10 16:07:08;;;;;;;7.37;3.27;;;;;;;;;;10330734;28;20194;-71
2021/04/10 16:12:18;;;;;;;8.80;3.50;;;;;;;;;;10336463;28;20221;-72
2021/04/10 16:17:19;;;;;;;8.23;3.70;;;;;;;;;;10333154;28;20506;-71
2021/04/10 16:22:22;;;;;;;9.67;3.83;;;;;;;;;;10329916;28;20241;-72
2021/04/10 16:27:23;;;;;;;7.27;3.70;;;;;;;;;;10355806;28;20195;-72
2021/04/10 16:32:25;;;;;;;7.40;3.70;;;;;;;;;;10342381;28;20729;-71
2021/04/10 16:37:28;;;;;;;8.03;3.73;;;;;;;;;;10344860;28;20200;-71
2021/04/10 16:42:30;;;;;;;9.93;3.80;;;;;;;;;;10326534;28;20303;-71
2021/04/10 16:47:31;;;;;;;8.77;3.77;;;;;;;;;;10351152;28;20282;-71
2021/04/10 16:52:34;;;;;;;7.90;3.50;;;;;;;;;;10334624;28;20224;-71
2021/04/10 16:57:36;;;;;;;9.27;3.70;;;;;;;;;;10353136;28;20221;-73
2021/04/10 17:02:38;;;;;;;7.03;3.47;;;;;;;;;;10351540;28;20214;-71
2021/04/10 17:07:41;;;;;;;7.87;3.63;;;;;;;;;;10350929;28;20222;-75
2021/04/10 17:12:43;;;;;;;10.13;3.63;;;;;;;;;;10349940;28;20242;-73
2021/04/10 17:17:44;;;;;;;7.87;3.70;;;;;;;;;;10325634;28;20210;-72
2021/04/10 17:22:47;;;;;;;7.87;3.70;;;;;;;;;;10351389;28;20306;-72
2021/04/10 17:27:49;;;;;;;9.33;3.90;;;;;;;;;;10346128;28;20261;-72
2021/04/10 17:32:50;;;;;;;8.80;3.87;;;;;;;;;;10325151;28;20662;-72
2021/04/10 17:37:53;;;;;;;8.27;3.50;;;;;;;;;;10334518;28;20281;-73
2021/04/10 17:42:55;;;;;;;9.03;3.40;;;;;;;;;;10346997;28;20689;-70
2021/04/10 17:47:57;;;;;;;7.50;3.37;;;;;;;;;;10354436;28;20499;-71
2021/04/10 17:53:03;;;;;;;8.97;3.80;;;;;;;;;;10330854;28;20210;-71
2021/04/10 17:58:05;;;;;;;9.57;3.70;;;;;;;;;;10357496;28;20768;-69
2021/04/10 18:03:07;;;;;;;8.27;3.50;;;;;;;;;;10335331;28;20230;-69
2021/04/10 18:08:09;;;;;;;9.80;3.63;;;;;;;;;;10348985;28;20203;-71
2021/04/10 18:13:11;;;;;;;8.10;3.60;;;;;;;;;;10351827;28;20226;-70
2021/04/10 18:18:13;;;;;;;9.37;3.50;;;;;;;;;;10351055;28;20202;-70
2021/04/10 18:23:22;;;;;;;11.27;3.97;;;;;;;;;;10356077;28;20218;-70
2021/04/10 18:28:24;;;;;;;10.93;4.17;;;;;;;;;;10326289;28;20229;-71
2021/04/10 18:33:26;;;;;;;11.57;4.30;;;;;;;;;;10335237;28;20313;-72
2021/04/10 18:38:28;;;;;;;8.33;4.40;;;;;;;;;;10322355;28;20624;-69
2021/04/10 18:43:31;;;;;;;12.03;4.70;;;;;;;;;;10347687;28;20233;-71
2021/04/10 18:48:33;;;;;;;9.77;4.80;;;;;;;;;;10339599;28;20637;-71
2021/04/10 18:53:36;;;;;;;10.40;5.17;;;;;;;;;;10348846;28;20265;-71
2021/04/10 18:58:40;;;;;;;9.60;4.97;;;;;;;;;;10357605;28;20219;-69
2021/04/10 19:03:41;;;;;;;10.90;4.80;;;;;;;;;;10352034;28;20434;-71
2021/04/10 19:08:44;;;;;;;11.10;5.10;;;;;;;;;;10357292;28;20186;-70
2021/04/10 19:14:06;;;;;;;9.20;4.30;;;;;;;;;;10328461;28;20210;-70
2021/04/10 19:19:08;;;;;;;12.30;6.13;;;;;;;;;;10350660;28;20277;-69
2021/04/10 19:24:10;;;;;;;11.30;5.50;;;;;;;;;;10332715;28;20650;-71
2021/04/10 19:29:12;;;;;;;11.33;5.30;;;;;;;;;;10349112;28;20195;-70
2021/04/10 19:34:14;;;;;;;10.87;4.97;;;;;;;;;;10338123;28;20210;-70
2021/04/10 19:39:17;;;;;;;13.43;5.37;;;;;;;;;;10336238;28;20214;-70
2021/04/10 19:44:18;;;;;;;10.77;5.57;;;;;;;;;;10354047;28;20641;-71
2021/04/10 19:49:20;;;;;;;12.13;5.37;;;;;;;;;;10355255;28;20229;-71
2021/04/10 19:54:24;;;;;;;13.00;6.00;;;;;;;;;;10348563;28;20229;-71
2021/04/10 19:59:27;;;;;;;12.13;5.87;;;;;;;;;;10336867;28;20529;-71
2021/04/10 20:04:30;;;;;;;10.43;5.60;;;;;;;;;;10333765;28;20250;-70
2021/04/10 20:09:32;;;;;;;12.60;5.47;;;;;;;;;;10336546;28;20275;-70
2021/04/10 20:14:34;;;;;;;13.07;5.43;;;;;;;;;;10332879;28;20203;-71
2021/04/10 20:19:35;;;;;;;9.67;5.23;;;;;;;;;;10320823;28;20234;-71
2021/04/10 20:24:38;;;;;;;10.83;5.97;;;;;;;;;;10348897;28;20257;-71
2021/04/10 20:29:41;;;;;;;12.03;6.00;;;;;;;;;;10353215;28;20658;-70
2021/04/10 20:34:42;;;;;;;11.40;5.73;;;;;;;;;;10324738;28;20198;-70
2021/04/10 20:39:46;;;;;;;10.87;5.73;;;;;;;;;;10358580;28;20318;-70
2021/04/10 20:44:48;;;;;;;12.23;5.97;;;;;;;;;;10339616;28;20214;-70
2021/04/10 20:49:50;;;;;;;11.97;5.53;;;;;;;;;;10355410;28;20214;-71
2021/04/10 20:54:53;;;;;;;11.17;5.97;;;;;;;;;;10335768;28;20625;-71
2021/04/10 20:59:55;;;;;;;12.53;5.93;;;;;;;;;;10342387;28;20218;-71
2021/04/10 21:04:59;;;;;;;12.47;6.37;;;;;;;;;;10352426;28;20315;-70
2021/04/10 21:10:03;;;;;;;11.33;6.27;;;;;;;;;;10323869;28;20217;-71
2021/04/10 21:15:05;;;;;;;12.27;6.53;;;;;;;;;;10347782;28;20295;-71
2021/04/10 21:20:08;;;;;;;12.27;6.10;;;;;;;;;;10348730;28;20625;-70
2021/04/10 21:25:11;;;;;;;11.83;5.30;;;;;;;;;;10344030;28;20649;-71
2021/04/10 21:30:13;;;;;;;8.03;4.53;;;;;;;;;;10351334;28;20264;-70
2021/04/10 21:35:15;;;;;;;11.93;4.77;;;;;;;;;;10350754;28;20201;-68
2021/04/10 21:40:19;;;;;;;8.63;4.70;;;;;;;;;;10331234;28;20230;-71
2021/04/10 21:45:21;;;;;;;8.13;3.60;;;;;;;;;;10326003;28;20195;-71
2021/04/10 21:50:23;;;;;;;7.90;3.60;;;;;;;;;;10347771;28;20313;-70
2021/04/10 21:55:25;;;;;;;8.37;3.43;;;;;;;;;;10346577;28;20213;-71
2021/04/10 22:00:46;;;;;;;3.17;1.57;;;;;;;;;;10315724;28;20299;-70
2021/04/10 22:05:47;;;;;;;6.57;2.90;;;;;;;;;;10327405;28;20260;-71
2021/04/10 22:10:50;;;;;;;4.77;2.53;;;;;;;;;;10338369;28;20206;-71
2021/04/10 22:15:52;;;;;;;7.67;2.57;;;;;;;;;;10345535;28;20283;-71
2021/04/10 22:20:54;;;;;;;5.27;2.43;;;;;;;;;;10345710;28;20210;-71
2021/04/10 22:25:56;;;;;;;4.20;1.80;;;;;;;;;;10343957;28;20225;-72
2021/04/10 22:30:58;;;;;;;6.30;2.40;;;;;;;;;;10343845;28;20218;-72
2021/04/10 22:35:59;;;;;;;5.80;2.77;;;;;;;;;;10331011;28;20195;-70
2021/04/10 22:41:02;;;;;;;6.77;3.10;;;;;;;;;;10337040;28;20222;-71
2021/04/10 22:46:04;;;;;;;3.80;2.17;;;;;;;;;;10351017;28;20269;-71
2021/04/10 22:51:06;;;;;;;9.60;2.93;;;;;;;;;;10327304;28;20305;-69
2021/04/10 22:56:09;;;;;;;8.67;3.60;;;;;;;;;;10338703;28;20195;-70
2021/04/10 23:01:11;;;;;;;5.97;2.73;;;;;;;;;;10333571;28;20265;-71
2021/04/10 23:06:12;;;;;;;9.47;3.17;;;;;;;;;;10336516;28;20625;-70
2021/04/10 23:11:15;;;;;;;6.70;2.77;;;;;;;;;;10330844;28;20230;-70
2021/04/10 23:16:18;;;;;;;8.13;3.27;;;;;;;;;;10328207;28;20560;-71
2021/04/10 23:21:19;;;;;;;7.00;3.07;;;;;;;;;;10331787;28;20226;-71
2021/04/10 23:26:22;;;;;;;6.67;3.00;;;;;;;;;;10352015;28;20266;-71
2021/04/10 23:31:23;;;;;;;5.70;2.97;;;;;;;;;;10352759;28;20206;-70
2021/04/10 23:36:25;;;;;;;5.80;2.80;;;;;;;;;;10349894;28;20190;-71
2021/04/10 23:41:28;;;;;;;5.90;2.80;;;;;;;;;;10321840;28;20235;-71
2021/04/10 23:46:29;;;;;;;6.40;2.70;;;;;;;;;;10352003;28;20198;-71
2021/04/10 23:51:31;;;;;;;6.23;2.80;;;;;;;;;;10315551;28;20666;-70
2021/04/10 23:56:33;;;;;;;6.00;2.90;;;;;;;;;;10354333;28;20254;-73
